CheckWX is a tool to help pilots better visualize weather data.  It is not intended as a substitute for an official pre-flight weather briefing.

08:13:55 UTC

5A6 METAR
Winona-Montgomery County Airport
Winona, Mississippi, USA
Current

19 mins ago

K5A6 180755Z AUTO 34006KT 10SM CLR 03/02 A3015 RMK AO2 T00250017
Observed
Feb-18 @ 07:55 UTC
Wind
  • 340° at 6 KTS
Visibility
10 SM
Flight Rules
VFR
Cloud Levels
  • Clear skies
Temperature
C / 37°F
Dewpoint
C / 36°F
Humidity
93%
Altimeter
30.15" Hg
Pressure
1021.02 hPa
Previous

39 mins ago

K5A6 180735Z AUTO 36006KT 10SM CLR 03/02 A3012 RMK AO2 T00280020
Observed
Feb-18 @ 07:35 UTC
Wind
  • 360° at 6 KTS
Visibility
10 SM
Flight Rules
VFR
Cloud Levels
  • Clear skies
Temperature
C / 37°F
Dewpoint
C / 36°F
Humidity
93%
Altimeter
30.12" Hg
Pressure
1020.02 hPa
Previous

59 mins ago

K5A6 180715Z AUTO 36005KT 10SM CLR 03/02 A3011 RMK AO2 T00300019
Observed
Feb-18 @ 07:15 UTC
Wind
  • 360° at 5 KTS
Visibility
10 SM
Flight Rules
VFR
Cloud Levels
  • Clear skies
Temperature
C / 37°F
Dewpoint
C / 36°F
Humidity
93%
Altimeter
30.11" Hg
Pressure
1019.62 hPa